Time;durP1;ratioP1;P1;durP2;ratioP2;P2;SDS_P1;SDS_P2;PMS_P1;PMS_P2;Temp;Humidity;BMP_temperature;BMP_pressure;BME280_temperature;BME280_humidity;BME280_pressure;Samples;Min_cycle;Max_cycle;Signal;HPM_P1;HPM_P2
2022/01/14 00:01:55;;;;;;;0.00;0.00;;;;;;;-2.94;66.22;100252.19;5111891;28;20089;-73
2022/01/14 00:04:21;;;;;;;0.00;0.00;;;;;;;-2.85;66.19;100279.22;5111822;28;20059;-74
2022/01/14 00:06:46;;;;;;;0.00;0.00;;;;;;;-2.91;66.44;100258.91;5111423;28;20516;-73
2022/01/14 00:09:13;;;;;;;0.00;0.00;;;;;;;-2.93;65.88;100248.59;5110136;28;20027;-74
2022/01/14 00:11:48;;;;;;;0.00;0.00;;;;;;;-2.86;65.97;100268.91;5111661;28;20032;-74
2022/01/14 00:16:39;;;;;;;0.00;0.00;;;;;;;-2.87;65.88;100265.47;5111455;28;20096;-74
2022/01/14 00:19:04;;;;;;;0.00;0.00;;;;;;;-2.97;65.77;100247.25;5101566;28;20106;-76
2022/01/14 00:21:32;;;;;;;0.10;0.10;;;;;;;-2.95;65.48;100262.84;5111003;28;20024;-74
2022/01/14 00:24:09;;;;;;;0.00;0.00;;;;;;;-2.94;65.50;100264.44;5111301;28;20028;-76
2022/01/14 00:32:12;;;;;;;0.00;0.00;;;;;;;-2.98;64.71;100290.16;5090915;28;20502;-73
2022/01/14 00:34:37;;;;;;;0.00;0.00;;;;;;;-3.07;65.13;100267.53;5096817;28;20551;-74
2022/01/14 00:37:04;;;;;;;0.00;0.00;;;;;;;-2.98;65.16;100300.63;5110861;28;20035;-72
2022/01/14 00:39:30;;;;;;;0.00;0.00;;;;;;;-2.98;65.28;100292.75;5110207;28;20115;-75
2022/01/14 00:41:55;;;;;;;0.00;0.00;;;;;;;-3.01;64.75;100285.22;5109666;28;20053;-75
2022/01/14 00:44:21;;;;;;;0.00;0.00;;;;;;;-3.00;64.72;100286.03;5110072;28;20023;-76
2022/01/14 00:46:48;;;;;;;0.00;0.00;;;;;;;-3.13;65.09;100262.91;5110028;28;20118;-75
2022/01/14 00:49:15;;;;;;;0.00;0.00;;;;;;;-3.15;64.95;100254.38;5109721;28;20023;-73
2022/01/14 00:51:41;;;;;;;0.00;0.00;;;;;;;-3.09;64.86;100272.91;5102029;28;20058;-72
2022/01/14 00:54:07;;;;;;;0.00;0.00;;;;;;;-3.10;65.49;100273.88;5106009;28;20034;-73
2022/01/14 00:56:46;;;;;;;0.00;0.00;;;;;;;-3.14;65.91;100263.88;5111129;28;20027;-76
2022/01/14 00:59:15;;;;;;;;;;;;;;;-3.11;65.24;100274.88;5104608;28;20039;-72
2022/01/14 01:01:59;;;;;;;0.00;0.00;;;;;;;-3.15;65.71;100265.69;5095178;28;19908;-72
2022/01/14 01:04:33;;;;;;;0.00;0.00;;;;;;;-3.27;65.60;100256.44;5094643;28;20036;-74
2022/01/14 01:07:04;;;;;;;0.00;0.00;;;;;;;-3.24;65.66;100256.97;5112979;28;20024;-75
2022/01/14 01:09:30;;;;;;;0.00;0.00;;;;;;;-3.29;65.31;100238.28;5115098;28;20031;-75
2022/01/14 01:14:47;;;;;;;0.00;0.00;;;;;;;-3.35;65.01;100238.91;5114936;28;20031;-74
2022/01/14 01:17:13;;;;;;;0.00;0.00;;;;;;;-3.29;66.01;100242.72;5094272;28;20035;-72
2022/01/14 01:19:40;;;;;;;0.00;0.00;;;;;;;-3.27;65.50;100249.44;5097106;28;20502;-72
2022/01/14 01:22:05;;;;;;;0.00;0.00;;;;;;;-3.45;65.17;100210.25;5105727;28;20023;-73
2022/01/14 01:24:31;;;;;;;0.00;0.00;;;;;;;-3.34;65.57;100218.81;5109079;28;20119;-73
2022/01/14 01:26:57;;;;;;;0.00;0.00;;;;;;;-3.39;65.79;100207.03;5094108;28;20475;-75
2022/01/14 01:31:52;;;;;;;0.00;0.00;;;;;;;-3.35;65.91;100206.72;5094065;28;20036;-73
2022/01/14 01:34:23;;;;;;;0.00;0.00;;;;;;;-3.60;66.08;100170.81;5094208;28;20030;-73
2022/01/14 01:36:51;;;;;;;0.00;0.00;;;;;;;-3.43;66.01;100203.09;5101184;28;20407;-73
2022/01/14 01:39:20;;;;;;;0.00;0.00;;;;;;;-3.54;65.88;100193.72;5112132;28;20106;-73
2022/01/14 01:41:48;;;;;;;0.00;0.00;;;;;;;-3.47;66.21;100217.44;5105130;28;20036;-72
2022/01/14 01:44:15;;;;;;;0.00;0.00;;;;;;;-3.62;66.48;100182.41;5112689;28;20393;-75
2022/01/14 01:46:45;;;;;;;0.00;0.00;;;;;;;-3.57;66.21;100190.59;5114411;28;20027;-77
2022/01/14 01:49:10;;;;;;;0.00;0.00;;;;;;;-3.64;66.15;100174.69;5112995;28;20031;-76
2022/01/14 01:51:38;;;;;;;0.13;0.13;;;;;;;-3.62;66.09;100167.50;5112696;28;20048;-74
2022/01/14 01:54:03;;;;;;;0.00;0.00;;;;;;;-3.54;66.48;100185.03;5105624;28;20035;-76
2022/01/14 01:56:29;;;;;;;0.00;0.00;;;;;;;-3.57;66.44;100173.09;5112383;28;20031;-76
2022/01/14 01:58:56;;;;;;;0.00;0.00;;;;;;;-3.59;66.85;100163.75;5112558;28;20031;-75
2022/01/14 02:01:23;;;;;;;0.00;0.00;;;;;;;-3.63;66.57;100150.19;5107903;28;20040;-77
2022/01/14 02:03:48;;;;;;;0.00;0.00;;;;;;;-3.67;67.07;100145.41;5112065;28;20035;-75
2022/01/14 02:06:14;;;;;;;0.00;0.00;;;;;;;-3.67;67.13;100148.03;5114081;28;20049;-75
2022/01/14 02:08:40;;;;;;;0.00;0.00;;;;;;;-3.59;67.03;100169.00;5113737;28;20054;-75
2022/01/14 02:11:05;;;;;;;0.00;0.00;;;;;;;-3.56;67.40;100176.53;5111365;28;20471;-75
2022/01/14 02:13:31;;;;;;;0.00;0.00;;;;;;;-3.64;66.82;100160.81;5112616;28;20540;-76
2022/01/14 02:23:46;;;;;;;0.00;0.00;;;;;;;-3.67;66.88;100167.16;5108754;28;20427;-75
2022/01/14 02:26:16;;;;;;;0.00;0.00;;;;;;;-3.64;66.86;100147.72;5101358;28;20035;-75
2022/01/14 02:28:42;;;;;;;0.00;0.00;;;;;;;-3.66;66.76;100149.69;5112272;28;20035;-75
2022/01/14 02:31:08;;;;;;;0.00;0.00;;;;;;;-3.70;67.00;100133.47;5113117;28;20384;-74
2022/01/14 02:33:34;;;;;;;0.00;0.00;;;;;;;-3.59;66.20;100148.91;5100767;28;20035;-79
2022/01/14 02:36:00;;;;;;;0.00;0.00;;;;;;;-3.64;66.33;100145.13;5091492;28;20020;-72
2022/01/14 02:38:25;;;;;;;0.00;0.00;;;;;;;-3.65;66.65;100133.84;5092990;28;20026;-73
2022/01/14 02:40:51;;;;;;;0.00;0.00;;;;;;;-3.57;66.25;100139.09;5093052;28;20201;-73
2022/01/14 02:43:17;;;;;;;0.00;0.00;;;;;;;-3.66;66.70;100126.16;5092627;28;20103;-73
2022/01/14 02:45:50;;;;;;;0.40;0.40;;;;;;;-3.76;66.78;100111.41;5092813;28;20016;-77
2022/01/14 02:48:17;;;;;;;0.00;0.00;;;;;;;-3.71;66.62;100119.59;5092639;28;20039;-72
2022/01/14 02:50:59;;;;;;;0.00;0.00;;;;;;;-3.83;67.18;100076.41;5106936;28;20023;-72
2022/01/14 02:56:04;;;;;;;0.00;0.00;;;;;;;-3.61;66.39;100095.13;5108462;28;20054;-72
2022/01/14 02:58:32;;;;;;;0.00;0.00;;;;;;;-3.63;66.60;100084.00;5099166;28;20110;-73
2022/01/14 03:01:14;;;;;;;0.00;0.00;;;;;;;-3.75;66.76;100065.16;5092657;28;20032;-75
2022/01/14 03:03:43;;;;;;;0.00;0.00;;;;;;;-3.63;66.76;100081.41;5090943;28;20032;-73
2022/01/14 03:06:09;;;;;;;0.00;0.00;;;;;;;-3.71;67.03;100066.47;5091910;28;20388;-74
2022/01/14 03:08:35;;;;;;;0.00;0.00;;;;;;;-3.72;66.96;100068.28;5092197;28;20138;-74
2022/01/14 03:11:10;;;;;;;0.00;0.00;;;;;;;-3.72;66.74;100063.06;5090822;28;20031;-74
2022/01/14 03:13:37;;;;;;;0.00;0.00;;;;;;;-3.82;66.44;100056.31;5096450;28;20028;-77
2022/01/14 03:16:03;;;;;;;0.00;0.00;;;;;;;-3.70;67.25;100068.13;5109099;28;20033;-73
2022/01/14 03:18:47;;;;;;;0.00;0.00;;;;;;;-3.72;66.49;100057.03;5112606;28;20050;-74
2022/01/14 03:21:16;;;;;;;0.00;0.00;;;;;;;-3.77;66.97;100048.81;5090675;28;20062;-74
2022/01/14 03:23:50;;;;;;;0.00;0.00;;;;;;;-3.82;66.57;100032.78;5098260;28;20077;-74
2022/01/14 03:26:19;;;;;;;0.00;0.00;;;;;;;-3.72;66.88;100052.59;5110888;28;20031;-77
2022/01/14 03:28:48;;;;;;;0.00;0.00;;;;;;;-3.73;67.00;100042.31;5092794;28;20028;-76
2022/01/14 03:31:14;;;;;;;0.00;0.00;;;;;;;-3.73;66.50;100040.50;5091719;28;20047;-74
2022/01/14 03:33:40;;;;;;;0.00;0.00;;;;;;;-3.72;66.43;100033.50;5092268;28;20526;-75
2022/01/14 03:36:07;;;;;;;0.00;0.00;;;;;;;-3.77;65.48;100015.66;5092333;28;20039;-74
2022/01/14 03:38:33;;;;;;;0.10;0.10;;;;;;;-3.72;66.22;100018.63;5111973;28;20114;-76
2022/01/14 03:40:59;;;;;;;0.00;0.00;;;;;;;-3.89;65.95;99988.19;5110758;28;20027;-75
2022/01/14 03:43:25;;;;;;;0.00;0.00;;;;;;;-3.89;65.87;99990.78;5110967;28;20063;-75
2022/01/14 03:45:50;;;;;;;0.10;0.10;;;;;;;-3.97;66.08;99991.56;5110496;28;20051;-74
2022/01/14 03:48:17;;;;;;;0.00;0.00;;;;;;;-3.98;65.91;100005.59;5093032;28;20036;-75
2022/01/14 03:50:43;;;;;;;0.00;0.00;;;;;;;-4.05;66.15;99997.59;5091622;28;20028;-72
2022/01/14 03:53:10;;;;;;;0.00;0.00;;;;;;;-3.98;66.02;100004.78;5096225;28;20043;-74
2022/01/14 03:55:38;;;;;;;0.00;0.00;;;;;;;-4.09;66.48;99985.00;5110599;28;20027;-74
2022/01/14 03:58:03;;;;;;;0.00;0.00;;;;;;;-4.29;66.70;99963.53;5111541;28;20262;-75
2022/01/14 04:00:30;;;;;;;0.00;0.00;;;;;;;-4.07;66.17;100006.56;5110481;28;20627;-73
2022/01/14 04:02:56;;;;;;;0.00;0.00;;;;;;;-4.04;67.04;100001.00;5107556;28;20050;-73
2022/01/14 04:05:22;;;;;;;0.00;0.00;;;;;;;-4.07;66.66;100004.75;5111379;28;20483;-75
2022/01/14 04:07:47;;;;;;;0.00;0.00;;;;;;;-4.08;66.94;100005.72;5107693;28;20032;-74
2022/01/14 04:10:13;;;;;;;0.00;0.00;;;;;;;-4.06;66.85;100001.16;5111877;28;20092;-74
2022/01/14 04:12:51;;;;;;;0.00;0.00;;;;;;;-4.18;66.74;100005.84;5111681;28;20032;-76
2022/01/14 04:15:36;;;;;;;0.00;0.00;;;;;;;-4.22;66.55;100001.13;5107816;28;20024;-73
2022/01/14 04:18:06;;;;;;;0.00;0.00;;;;;;;-4.15;67.03;100014.34;5110049;28;20038;-74
2022/01/14 04:20:31;;;;;;;0.10;0.10;;;;;;;-4.36;67.65;99992.03;5096008;28;20028;-73
2022/01/14 04:22:57;;;;;;;0.00;0.00;;;;;;;-4.17;67.38;100014.50;5089939;28;20024;-72
2022/01/14 04:25:23;;;;;;;0.10;0.10;;;;;;;-4.12;67.39;100020.09;5092770;28;20483;-84
2022/01/14 04:27:49;;;;;;;0.00;0.00;;;;;;;-4.11;67.38;100016.50;5109998;28;20376;-73
2022/01/14 04:30:14;;;;;;;0.00;0.00;;;;;;;-4.11;67.91;100011.28;5105858;28;20035;-72
2022/01/14 04:32:40;;;;;;;0.00;0.00;;;;;;;-4.20;67.98;99992.13;5101836;28;20028;-73
2022/01/14 04:35:06;;;;;;;0.00;0.00;;;;;;;-4.08;67.86;100008.34;5113022;28;20424;-72
2022/01/14 04:37:32;;;;;;;0.93;0.63;;;;;;;-4.04;67.75;100006.22;5113230;27;20081;-74
2022/01/14 04:39:57;;;;;;;0.00;0.00;;;;;;;-4.05;67.61;100002.00;5117222;27;20032;-73
2022/01/14 04:42:24;;;;;;;0.00;0.00;;;;;;;-4.09;67.93;99988.44;5115396;28;20488;-73
2022/01/14 04:44:53;;;;;;;0.00;0.00;;;;;;;-4.04;67.77;99991.38;5109836;28;20035;-73
2022/01/14 04:47:29;;;;;;;0.00;0.00;;;;;;;-3.97;67.84;99988.94;5115365;28;20447;-73
2022/01/14 04:49:54;;;;;;;0.00;0.00;;;;;;;-3.90;67.61;99986.53;5115509;28;20129;-71
2022/01/14 04:52:20;;;;;;;0.00;0.00;;;;;;;-3.89;67.60;99985.56;5107656;28;20151;-74
2022/01/14 04:54:45;;;;;;;0.00;0.00;;;;;;;-4.00;67.52;99973.59;5094937;28;20028;-72
2022/01/14 04:57:11;;;;;;;0.00;0.00;;;;;;;-3.90;67.63;99982.13;5094553;28;20550;-74
2022/01/14 04:59:36;;;;;;;0.00;0.00;;;;;;;-3.90;67.72;99971.66;5093525;28;20479;-72
2022/01/14 05:02:02;;;;;;;0.00;0.00;;;;;;;-3.86;67.60;99970.38;5093834;28;20115;-74
2022/01/14 05:04:28;;;;;;;0.00;0.00;;;;;;;-3.89;67.63;99960.25;5093412;28;20028;-74
2022/01/14 05:06:59;;;;;;;0.00;0.00;;;;;;;-3.98;67.48;99955.94;5094579;28;20028;-73
2022/01/14 05:09:31;;;;;;;0.00;0.00;;;;;;;-3.93;67.74;99973.78;5093264;28;20427;-72
2022/01/14 05:12:05;;;;;;;0.00;0.00;;;;;;;-3.94;68.31;99978.19;5094734;28;20071;-74
2022/01/14 05:14:30;;;;;;;0.00;0.00;;;;;;;-3.96;67.87;99976.72;5092899;28;20106;-71
2022/01/14 05:16:55;;;;;;;0.00;0.00;;;;;;;-3.90;68.06;99981.31;5093374;28;20032;-72
2022/01/14 05:19:21;;;;;;;0.00;0.00;;;;;;;-3.90;68.11;99979.50;5093054;28;20479;-73
2022/01/14 05:21:46;;;;;;;0.00;0.00;;;;;;;-3.91;67.94;99985.72;5094784;28;20024;-73
2022/01/14 05:24:12;;;;;;;0.00;0.00;;;;;;;-3.83;67.52;99995.38;5092654;28;20024;-75
2022/01/14 05:26:37;;;;;;;0.00;0.00;;;;;;;-3.86;67.60;99993.91;5094405;28;20028;-72
2022/01/14 05:29:03;;;;;;;0.00;0.00;;;;;;;-3.87;67.53;99973.13;5094114;28;20036;-73
2022/01/14 05:31:45;;;;;;;0.00;0.00;;;;;;;-3.83;67.55;99969.25;5092542;28;20024;-72
2022/01/14 05:34:10;;;;;;;0.00;0.00;;;;;;;-3.88;67.79;99966.31;5093660;28;20461;-73
2022/01/14 05:36:36;;;;;;;0.00;0.00;;;;;;;-3.96;67.76;99958.44;5093994;28;20024;-72
2022/01/14 05:39:02;;;;;;;0.00;0.00;;;;;;;-3.99;68.41;99961.34;5094116;28;20062;-73
2022/01/14 05:41:27;;;;;;;0.00;0.00;;;;;;;-4.03;68.15;99953.00;5094240;28;20039;-72
2022/01/14 05:43:52;;;;;;;0.00;0.00;;;;;;;-4.09;67.85;99943.19;5092765;28;20119;-73
2022/01/14 05:46:18;;;;;;;1.00;1.00;;;;;;;-4.02;67.50;99937.19;5093666;28;20055;-73
2022/01/14 05:48:43;;;;;;;0.00;0.00;;;;;;;-4.02;67.25;99939.81;5094010;28;20035;-71
2022/01/14 05:51:09;;;;;;;0.00;0.00;;;;;;;-3.88;67.82;99956.66;5093575;28;20032;-73
2022/01/14 05:53:34;;;;;;;0.00;0.00;;;;;;;-3.96;68.06;99937.53;5093858;28;20564;-72
2022/01/14 05:55:59;;;;;;;0.10;0.10;;;;;;;-3.91;67.95;99949.13;5093656;28;20112;-71
2022/01/14 05:58:25;;;;;;;0.00;0.00;;;;;;;-3.90;68.24;99944.72;5093196;28;20032;-73
2022/01/14 06:00:50;;;;;;;0.00;0.00;;;;;;;-3.96;67.45;99929.69;5093763;28;20024;-71
2022/01/14 06:03:16;;;;;;;0.00;0.00;;;;;;;-3.81;67.47;99958.63;5093406;28;20082;-72
2022/01/14 06:05:41;;;;;;;0.00;0.00;;;;;;;-3.81;67.88;99946.38;5093668;28;20036;-74
2022/01/14 06:08:06;;;;;;;2.77;2.60;;;;;;;-3.82;67.37;99926.47;5093271;28;20032;-72
2022/01/14 06:10:32;;;;;;;0.43;0.43;;;;;;;-3.64;67.92;99943.81;5093441;28;20111;-71
2022/01/14 06:12:57;;;;;;;0.57;0.57;;;;;;;-3.59;67.61;99936.28;5093231;28;20407;-72
2022/01/14 06:15:23;;;;;;;0.00;0.00;;;;;;;-3.62;67.04;99926.97;5093157;28;20028;-72
2022/01/14 06:17:48;;;;;;;0.93;0.47;;;;;;;-3.54;66.79;99920.91;5093439;28;20035;-73
2022/01/14 06:20:14;;;;;;;0.33;0.33;;;;;;;-3.34;66.78;99944.13;5093193;28;20082;-73
2022/01/14 06:22:39;;;;;;;0.00;0.00;;;;;;;-3.24;66.95;99950.84;5093079;28;20492;-73
2022/01/14 06:25:06;;;;;;;1.07;1.07;;;;;;;-3.19;66.60;99937.28;5091969;28;20111;-73
2022/01/14 06:27:32;;;;;;;0.00;0.00;;;;;;;-3.13;65.71;99923.53;5092725;28;20119;-72
2022/01/14 06:29:59;;;;;;;0.00;0.00;;;;;;;-3.00;65.68;99924.84;5093215;28;20032;-73
2022/01/14 06:32:24;;;;;;;0.00;0.00;;;;;;;-2.99;65.59;99921.25;5092724;28;20108;-70
2022/01/14 06:34:50;;;;;;;0.00;0.00;;;;;;;-3.09;65.92;99887.41;5093079;28;20103;-71
2022/01/14 06:37:16;;;;;;;0.00;0.00;;;;;;;-2.77;65.89;99920.56;5092580;28;20407;-71
2022/01/14 06:39:41;;;;;;;0.00;0.00;;;;;;;-2.76;65.05;99903.03;5093259;28;20043;-70
2022/01/14 06:42:07;;;;;;;0.00;0.00;;;;;;;-2.64;64.63;99904.31;5092890;28;20500;-69
2022/01/14 06:44:32;;;;;;;0.00;0.00;;;;;;;-2.49;64.58;99914.94;5092654;28;20024;-71
2022/01/14 06:46:57;;;;;;;0.00;0.00;;;;;;;-2.34;64.05;99907.16;5092861;28;20035;-71
2022/01/14 06:49:23;;;;;;;0.00;0.00;;;;;;;-2.24;64.09;99908.78;5092302;28;20028;-70
2022/01/14 06:51:48;;;;;;;0.50;0.50;;;;;;;-2.17;63.65;99893.97;5092549;28;20499;-72
2022/01/14 06:54:14;;;;;;;0.00;0.00;;;;;;;-2.11;63.44;99890.69;5092592;28;20028;-71
2022/01/14 06:56:39;;;;;;;0.00;0.00;;;;;;;-1.93;63.44;99906.13;5092368;28;20020;-72
2022/01/14 06:59:06;;;;;;;0.00;0.00;;;;;;;-1.86;62.06;99893.16;5091956;28;20031;-72
2022/01/14 07:01:31;;;;;;;0.00;0.00;;;;;;;-1.79;62.42;99894.91;5092051;28;20102;-72
2022/01/14 07:03:56;;;;;;;0.87;0.87;;;;;;;-1.69;62.65;99889.44;5092460;28;20034;-71
2022/01/14 07:06:22;;;;;;;1.00;0.93;;;;;;;-1.62;62.17;99900.06;5092482;28;20114;-72
2022/01/14 07:08:47;;;;;;;0.20;0.20;;;;;;;-1.56;62.90;99894.09;5092411;28;20038;-71
2022/01/14 07:11:14;;;;;;;0.00;0.00;;;;;;;-1.56;62.27;99894.09;5090960;28;20501;-72
2022/01/14 07:13:39;;;;;;;0.00;0.00;;;;;;;-1.40;62.54;99902.81;5092071;28;20035;-72
2022/01/14 07:16:05;;;;;;;0.00;0.00;;;;;;;-1.33;61.96;99899.34;5092212;28;20024;-73
2022/01/14 07:18:31;;;;;;;0.00;0.00;;;;;;;-1.23;61.57;99914.00;5092296;28;20039;-71
2022/01/14 07:20:56;;;;;;;0.00;0.00;;;;;;;-1.11;61.93;99909.97;5092138;28;20028;-73
2022/01/14 07:23:22;;;;;;;0.53;0.53;;;;;;;-1.09;61.50;99894.03;5091951;28;20032;-74
2022/01/14 07:25:47;;;;;;;0.00;0.00;;;;;;;-1.16;61.43;99876.38;5091829;28;20043;-73
2022/01/14 07:28:12;;;;;;;0.00;0.00;;;;;;;-1.07;60.50;99876.31;5091843;28;20028;-73
2022/01/14 07:30:38;;;;;;;0.40;0.40;;;;;;;-1.01;60.71;99883.47;5091981;28;20028;-73
2022/01/14 07:33:03;;;;;;;0.00;0.00;;;;;;;-0.96;60.92;99886.38;5090717;28;20119;-73
2022/01/14 07:35:29;;;;;;;0.00;0.00;;;;;;;-0.86;60.70;99888.72;5091326;28;20028;-75
2022/01/14 07:37:54;;;;;;;0.00;0.00;;;;;;;-0.83;60.99;99870.81;5091637;28;20066;-80
2022/01/14 07:40:20;;;;;;;0.27;0.27;;;;;;;-0.83;60.53;99843.72;5090282;28;20026;-76
2022/01/14 07:42:45;;;;;;;1.73;0.93;;;;;;;-0.76;60.33;99836.75;5090481;28;20453;-73
2022/01/14 07:45:11;;;;;;;0.38;0.38;;;;;;;-0.67;60.35;99840.91;5091709;28;20039;-73
2022/01/14 07:47:37;;;;;;;0.00;0.00;;;;;;;-0.67;59.71;99829.59;5090176;28;20035;-70
2022/01/14 07:50:03;;;;;;;0.00;0.00;;;;;;;-0.56;60.06;99838.81;5091370;28;20039;-74
2022/01/14 07:52:28;;;;;;;0.00;0.00;;;;;;;-0.64;60.10;99818.72;5089777;28;20040;-73
2022/01/14 07:54:53;;;;;;;0.00;0.00;;;;;;;-0.52;60.69;99834.81;5091577;28;20024;-73
2022/01/14 07:57:19;;;;;;;0.43;0.43;;;;;;;-0.45;60.68;99821.75;5091930;28;20172;-75
2022/01/14 07:59:45;;;;;;;0.00;0.00;;;;;;;-0.42;60.98;99810.88;5104862;28;20023;-75
2022/01/14 08:02:12;;;;;;;0.00;0.00;;;;;;;-0.39;61.02;99806.06;5111733;28;20467;-74
2022/01/14 08:04:38;;;;;;;0.17;0.17;;;;;;;-0.24;60.55;99815.75;5110835;27;20629;-73
2022/01/14 08:07:11;;;;;;;0.00;0.00;;;;;;;-0.18;60.97;99815.00;5107831;27;20035;-74
2022/01/14 08:09:42;;;;;;;0.00;0.00;;;;;;;-0.21;61.18;99807.47;5099329;28;20028;-74
2022/01/14 08:12:09;;;;;;;0.00;0.00;;;;;;;-0.02;60.74;99814.75;5099430;28;20105;-74
2022/01/14 08:14:35;;;;;;;0.10;0.10;;;;;;;0.10;60.57;99815.06;5091028;28;20170;-74
2022/01/14 08:17:01;;;;;;;0.00;0.00;;;;;;;0.13;61.40;99800.72;5090012;28;20020;-74
2022/01/14 08:19:26;;;;;;;0.00;0.00;;;;;;;0.38;61.32;99811.66;5091127;28;20032;-74
2022/01/14 08:21:52;;;;;;;0.00;0.00;;;;;;;0.41;60.22;99800.75;5094508;28;20035;-74
2022/01/14 08:24:18;;;;;;;1.65;1.55;;;;;;;0.64;60.34;99810.22;5110855;28;20077;-74
2022/01/14 08:26:43;;;;;;;0.00;0.00;;;;;;;0.72;59.88;99793.47;5110400;28;20531;-74
2022/01/14 08:29:08;;;;;;;0.00;0.00;;;;;;;0.82;59.60;99778.16;5111198;28;20019;-74
2022/01/14 08:31:34;;;;;;;0.00;0.00;;;;;;;1.02;59.63;99791.41;5111266;28;20436;-74
2022/01/14 08:34:00;;;;;;;0.00;0.00;;;;;;;1.09;58.77;99773.03;5110179;28;20023;-74
2022/01/14 08:36:28;;;;;;;0.00;0.00;;;;;;;1.22;58.32;99769.63;5109551;28;20114;-73
2022/01/14 08:38:53;;;;;;;0.00;0.00;;;;;;;1.35;58.24;99764.41;5110289;28;20023;-73
2022/01/14 08:41:20;;;;;;;0.00;0.00;;;;;;;1.46;58.58;99754.31;5105360;28;20475;-73
2022/01/14 08:43:47;;;;;;;0.00;0.00;;;;;;;1.53;57.11;99766.50;5099713;28;20112;-73
2022/01/14 08:46:13;;;;;;;0.00;0.00;;;;;;;1.64;57.46;99764.31;5089660;28;20032;-72
2022/01/14 08:48:39;;;;;;;0.47;0.47;;;;;;;1.69;57.12;99752.13;5089323;28;20031;-73
2022/01/14 08:51:04;;;;;;;21.35;2.90;;;;;;;1.84;56.69;99764.31;5091001;28;20029;-74
2022/01/14 08:53:30;;;;;;;1.58;1.48;;;;;;;1.84;55.19;99743.22;5090895;28;20510;-74
2022/01/14 08:55:55;;;;;;;0.00;0.00;;;;;;;1.90;55.45;99751.16;5089291;28;20028;-72
2022/01/14 08:58:21;;;;;;;0.00;0.00;;;;;;;2.04;54.32;99754.59;5089011;28;20038;-73
2022/01/14 09:00:48;;;;;;;0.00;0.00;;;;;;;2.04;54.77;99733.50;5090816;28;20029;-74
2022/01/14 09:03:13;;;;;;;0.00;0.00;;;;;;;2.18;53.90;99739.59;5090851;28;20020;-74
2022/01/14 09:05:39;;;;;;;0.00;0.00;;;;;;;2.16;53.03;99720.53;5089362;28;20039;-74
2022/01/14 09:08:04;;;;;;;0.63;0.63;;;;;;;2.25;52.75;99715.84;5090588;28;20028;-72
2022/01/14 09:10:30;;;;;;;0.00;0.00;;;;;;;2.28;53.03;99704.06;5090333;28;20024;-74
2022/01/14 09:12:55;;;;;;;1.30;0.65;;;;;;;2.28;52.58;99678.47;5089435;28;20488;-74
2022/01/14 09:15:21;;;;;;;0.00;0.00;;;;;;;2.34;52.09;99685.56;5089060;28;20046;-74
2022/01/14 09:17:46;;;;;;;0.10;0.10;;;;;;;2.50;52.23;99697.53;5090743;28;20028;-73
2022/01/14 09:20:13;;;;;;;0.00;0.00;;;;;;;2.54;52.31;99682.09;5089535;28;20090;-73
2022/01/14 09:22:40;;;;;;;0.05;0.05;;;;;;;2.66;51.89;99684.88;5092955;28;20039;-73
2022/01/14 09:25:07;;;;;;;0.00;0.00;;;;;;;2.79;51.55;99689.31;5094385;28;20107;-72
2022/01/14 09:27:33;;;;;;;0.00;0.00;;;;;;;2.84;52.04;99666.53;5093791;28;20020;-74
2022/01/14 09:30:04;;;;;;;0.00;0.00;;;;;;;2.91;51.28;99650.66;5093057;28;20398;-72
2022/01/14 09:32:31;;;;;;;0.00;0.00;;;;;;;3.10;51.54;99656.88;5094246;28;20495;-72
2022/01/14 09:34:56;;;;;;;0.00;0.00;;;;;;;3.11;51.33;99647.91;5094137;28;20111;-72
2022/01/14 09:37:22;;;;;;;0.00;0.00;;;;;;;3.25;51.29;99655.75;5094181;28;20112;-72
2022/01/14 09:39:47;;;;;;;0.00;0.00;;;;;;;3.29;51.28;99643.75;5094497;28;20028;-72
2022/01/14 09:42:13;;;;;;;0.00;0.00;;;;;;;3.34;52.12;99644.75;5092732;28;20101;-73
2022/01/14 09:44:41;;;;;;;0.10;0.10;;;;;;;3.46;51.66;99630.81;5093394;28;20032;-73
2022/01/14 09:47:07;;;;;;;0.00;0.00;;;;;;;3.57;51.99;99619.53;5093635;28;20161;-73
2022/01/14 09:49:33;;;;;;;0.00;0.00;;;;;;;3.62;51.59;99622.34;5093819;28;20020;-73
2022/01/14 09:51:59;;;;;;;0.00;0.00;;;;;;;3.62;50.85;99625.00;5092286;28;20169;-73
2022/01/14 09:54:24;;;;;;;0.00;0.00;;;;;;;3.59;50.87;99598.16;5092310;28;20062;-73
2022/01/14 09:56:50;;;;;;;0.00;0.00;;;;;;;3.71;50.34;99607.03;5093665;28;20028;-73
2022/01/14 09:59:18;;;;;;;0.00;0.00;;;;;;;3.77;50.50;99610.63;5093690;28;20028;-73
2022/01/14 10:01:45;;;;;;;;;;;;;;;3.84;49.74;99608.75;5092608;28;20069;-73
2022/01/14 10:04:22;;;;;;;0.00;0.00;;;;;;;3.91;49.55;99611.34;5093593;28;20048;-73
2022/01/14 10:06:51;;;;;;;0.00;0.00;;;;;;;3.92;48.85;99599.72;5093662;28;20028;-73
2022/01/14 10:09:21;;;;;;;0.00;0.00;;;;;;;3.97;48.42;99594.59;5093337;28;20070;-73
2022/01/14 10:12:05;;;;;;;0.00;0.00;;;;;;;3.99;48.71;99571.34;5093562;28;20053;-73
2022/01/14 10:14:31;;;;;;;0.55;0.47;;;;;;;4.07;48.30;99568.41;5091960;28;20069;-73
2022/01/14 10:16:59;;;;;;;0.00;0.00;;;;;;;4.10;48.64;99559.22;5092112;28;20036;-73
2022/01/14 10:19:45;;;;;;;0.00;0.00;;;;;;;4.25;48.52;99564.16;5091856;28;20024;-73
2022/01/14 10:22:25;;;;;;;0.65;0.65;;;;;;;4.25;48.33;99543.78;5093670;28;20099;-73
2022/01/14 10:25:11;;;;;;;0.00;0.00;;;;;;;4.43;49.24;99556.19;5093278;28;20027;-72
2022/01/14 10:27:45;;;;;;;0.00;0.00;;;;;;;4.45;49.64;99548.03;5092711;28;20052;-72
2022/01/14 10:30:18;;;;;;;0.00;0.00;;;;;;;4.63;49.73;99550.63;5093185;28;20038;-73
2022/01/14 10:32:46;;;;;;;0.00;0.00;;;;;;;4.63;49.17;99528.66;5090613;28;20107;-74
2022/01/14 10:35:15;;;;;;;0.30;0.30;;;;;;;4.68;48.81;99525.31;5092757;28;20028;-72
2022/01/14 10:37:40;;;;;;;;;;;;;;;4.84;49.50;99529.19;5093240;28;20074;-73
2022/01/14 10:40:15;;;;;;;0.20;0.20;;;;;;;4.78;49.24;99502.53;5100827;28;19912;-72
2022/01/14 10:42:42;;;;;;;0.00;0.00;;;;;;;4.93;48.85;99512.72;5106708;27;20092;-74
2022/01/14 10:45:23;;;;;;;0.00;0.00;;;;;;;4.95;49.17;99499.25;5132544;27;20022;-74
2022/01/14 10:47:59;;;;;;;0.00;0.00;;;;;;;5.10;48.54;99499.63;5116254;27;20032;-74
2022/01/14 10:50:27;;;;;;;0.00;0.00;;;;;;;5.13;49.77;99499.16;5112955;28;20052;-74
2022/01/14 10:52:53;;;;;;;0.00;0.00;;;;;;;5.21;49.38;99490.06;5111198;28;20084;-73
2022/01/14 10:55:34;;;;;;;0.00;0.00;;;;;;;5.21;49.83;99471.50;5113421;27;20036;-74
2022/01/14 10:58:02;;;;;;;0.20;0.20;;;;;;;5.29;50.57;99465.84;5112922;28;20451;-79
2022/01/14 11:00:28;;;;;;;0.00;0.00;;;;;;;5.27;50.32;99456.50;5111301;28;20020;-75
2022/01/14 11:02:53;;;;;;;0.00;0.00;;;;;;;5.47;50.20;99469.44;5111520;28;20032;-75
2022/01/14 11:05:21;;;;;;;0.10;0.10;;;;;;;5.50;50.35;99457.53;5094996;28;20031;-77
2022/01/14 11:07:48;;;;;;;0.45;0.45;;;;;;;5.66;50.80;99462.13;5099293;27;20035;-75
2022/01/14 11:10:35;;;;;;;0.00;0.00;;;;;;;5.81;50.76;99461.66;5114851;27;20035;-75
2022/01/14 11:13:02;;;;;;;0.70;0.57;;;;;;;5.88;50.87;99448.25;5131990;27;20042;-76
2022/01/14 11:15:30;;;;;;;0.75;0.75;;;;;;;5.99;51.55;99443.97;5132937;27;20540;-76
2022/01/14 11:17:59;;;;;;;0.00;0.00;;;;;;;6.10;52.22;99435.16;5131877;27;20482;-76
2022/01/14 11:23:18;;;;;;;0.00;0.00;;;;;;;6.34;53.30;99419.13;5082594;28;20032;-73
2022/01/14 11:26:03;;;;;;;0.00;0.00;;;;;;;6.45;53.82;99407.63;5090331;28;20036;-73
2022/01/14 11:28:33;;;;;;;0.00;0.00;;;;;;;6.51;54.19;99400.56;5089114;28;20059;-73
2022/01/14 11:30:59;;;;;;;0.00;0.00;;;;;;;6.41;54.41;99361.34;5103978;28;20024;-73
2022/01/14 11:33:39;;;;;;;0.15;0.08;;;;;;;6.56;53.73;99392.69;5090637;28;20028;-73
2022/01/14 11:36:07;;;;;;;0.00;0.00;;;;;;;6.60;54.28;99379.72;5091380;28;20555;-73
2022/01/14 11:38:36;;;;;;;0.10;0.10;;;;;;;6.69;53.96;99378.28;5096772;28;20434;-72
2022/01/14 11:41:01;;;;;;;0.00;0.00;;;;;;;6.69;54.04;99373.75;5091032;28;20032;-72
2022/01/14 11:43:49;;;;;;;0.00;0.00;;;;;;;6.84;54.11;99375.84;5090321;28;20023;-72
2022/01/14 11:46:34;;;;;;;0.00;0.00;;;;;;;6.89;53.21;99367.94;5091061;28;20035;-72
2022/01/14 11:49:00;;;;;;;0.00;0.00;;;;;;;6.89;52.93;99364.47;5089462;28;20032;-72
2022/01/14 11:51:26;;;;;;;0.00;0.00;;;;;;;6.88;52.41;99354.88;5089815;28;20034;-73
2022/01/14 11:54:04;;;;;;;0.00;0.00;;;;;;;6.99;52.94;99358.50;5090577;28;20043;-73
2022/01/14 11:56:30;;;;;;;0.00;0.00;;;;;;;7.03;52.85;99365.75;5089156;28;20028;-73
2022/01/14 11:59:18;;;;;;;0.00;0.00;;;;;;;7.05;52.23;99353.03;5101614;27;20022;-73
2022/01/14 12:01:55;;;;;;;0.00;0.00;;;;;;;7.08;52.63;99343.75;5119759;27;20023;-74
2022/01/14 12:04:22;;;;;;;0.00;0.00;;;;;;;7.12;52.55;99349.38;5107947;28;20545;-72